Rock Falls, Wisconsin
Current Conditions -  °F | °C
As of 8:27 PM on Friday 24 Oct 2014 (Local Time) from KEAU Reporting Station
Haze Haze  
Wind Chill: 55°   Ceiling: Unl
Heat Index: 55°   Visibility: 5mi
Dew Point: 53°   Wind: 5mph
Humidity: 93%   Direction: 190°S
Pressure: 29.86"   Gusts: NA
Location:  44.72°N, 91.69°W
Report Text: KEAU 250127Z 19004KT 5SM BR SCT018 13/12 A2986 RMK AO2 T01280117
Loading
Personal Weather Stations






























Interactive Weather Map
Tropical Storm Tracking
New forecast layout! Learn more

10-Day Weather Forecast

Advertisements
Track Severe Weather on mobile